createdAt,value
2022-11-27T00:01:33.852Z,101650.06
2022-11-27T00:04:01.827Z,101654.41
2022-11-27T00:06:30.922Z,101650.03
2022-11-27T00:09:01.295Z,101659.63
2022-11-27T00:11:30.843Z,101661.38
2022-11-27T00:13:59.646Z,101665.81
2022-11-27T00:16:28.059Z,101667.50
2022-11-27T00:18:56.092Z,101663.91
2022-11-27T00:21:29.490Z,101667.50
2022-11-27T00:23:59.108Z,101664.78
2022-11-27T00:26:30.033Z,101658.72
2022-11-27T00:29:02.174Z,101664.00
2022-11-27T00:31:32.305Z,101663.22
2022-11-27T00:34:03.596Z,101660.56
2022-11-27T00:36:33.484Z,101673.59
2022-11-27T00:39:01.516Z,101665.75
2022-11-27T00:41:30.501Z,101674.50
2022-11-27T00:43:58.614Z,101664.88
2022-11-27T00:46:29.456Z,101671.84
2022-11-27T00:48:59.361Z,101664.81
2022-11-27T00:51:27.349Z,101666.56
2022-11-27T00:53:55.411Z,101671.00
2022-11-27T00:56:28.818Z,101666.63
2022-11-27T00:58:57.354Z,101664.00
2022-11-27T01:01:32.464Z,101658.78
2022-11-27T01:04:01.875Z,101660.63
2022-11-27T01:06:31.822Z,101663.34
2022-11-27T01:09:00.196Z,101660.75
2022-11-27T01:11:30.211Z,101651.06
2022-11-27T01:14:01.309Z,101651.97
2022-11-27T01:16:30.898Z,101651.06
2022-11-27T01:19:00.174Z,101657.97
2022-11-27T01:21:30.277Z,101661.53
2022-11-27T01:23:58.715Z,101662.31
2022-11-27T01:26:26.950Z,101657.91
2022-11-27T01:28:56.092Z,101659.59
2022-11-27T01:31:27.103Z,101660.44
2022-11-27T01:34:12.579Z,101666.56
2022-11-27T01:36:40.242Z,101659.72
2022-11-27T01:39:07.902Z,101662.38
2022-11-27T01:41:37.389Z,101658.84
2022-11-27T01:44:23.661Z,101665.91
2022-11-27T01:46:54.677Z,101667.63
2022-11-27T01:49:30.675Z,101657.13
2022-11-27T01:52:07.068Z,101669.38
2022-11-27T01:54:58.476Z,101664.13
2022-11-27T01:57:30.953Z,101670.91
2022-11-27T02:00:01.134Z,101674.34
2022-11-27T02:02:31.181Z,101677.88
2022-11-27T02:04:58.943Z,101672.72
2022-11-27T02:07:26.787Z,101672.66
2022-11-27T02:09:54.619Z,101673.50
2022-11-27T02:12:33.312Z,101667.56
2022-11-27T02:15:08.616Z,101671.94
2022-11-27T02:17:58.523Z,101675.47
2022-11-27T02:20:29.172Z,101673.78
2022-11-27T02:23:25.927Z,101673.72
2022-11-27T02:26:27.794Z,101679.81
2022-11-27T02:29:08.217Z,101677.97
2022-11-27T02:31:50.839Z,101689.28
2022-11-27T02:34:39.992Z,101691.09
2022-11-27T02:37:29.901Z,101693.75
2022-11-27T02:40:09.793Z,101693.66
2022-11-27T02:42:48.079Z,101702.31
2022-11-27T02:45:23.914Z,101691.06
2022-11-27T02:47:51.839Z,101694.44
2022-11-27T02:50:24.238Z,101694.44
2022-11-27T02:52:57.996Z,101690.09
2022-11-27T02:55:31.060Z,101693.69
2022-11-27T02:58:02.146Z,101700.66
2022-11-27T03:00:31.125Z,101696.25
2022-11-27T03:03:04.428Z,101701.44
2022-11-27T03:05:36.807Z,101701.53
2022-11-27T03:08:12.553Z,101695.53
2022-11-27T03:10:51.022Z,101694.75
2022-11-27T03:13:18.974Z,101694.69
2022-11-27T03:16:09.559Z,101698.09
2022-11-27T03:18:48.811Z,101699.78
2022-11-27T03:21:39.702Z,101694.50
2022-11-27T03:24:09.167Z,101705.91
2022-11-27T03:26:39.132Z,101701.53
2022-11-27T03:29:13.857Z,101699.78
2022-11-27T03:31:41.987Z,101698.81
2022-11-27T03:34:10.325Z,101703.22
2022-11-27T03:36:38.078Z,101709.34
2022-11-27T03:39:05.887Z,101704.03
2022-11-27T03:41:39.524Z,101705.88
2022-11-27T03:44:20.505Z,101699.72
2022-11-27T03:47:00.055Z,101705.09
2022-11-27T03:49:30.780Z,101711.13
2022-11-27T03:52:04.131Z,101708.56
2022-11-27T03:55:01.194Z,101709.50
2022-11-27T03:57:41.135Z,101712.91
2022-11-27T04:00:10.501Z,101714.66
2022-11-27T04:02:45.916Z,101712.06
2022-11-27T04:05:14.474Z,101695.53
2022-11-27T04:07:42.346Z,101700.72
2022-11-27T04:10:10.725Z,101703.31
2022-11-27T04:12:38.760Z,101705.03
2022-11-27T04:15:07.672Z,101708.50
2022-11-27T04:17:35.533Z,101700.66
2022-11-27T04:20:04.024Z,101709.28
2022-11-27T04:22:32.634Z,101711.84
2022-11-27T04:25:00.134Z,101711.94
2022-11-27T04:27:28.208Z,101708.44
2022-11-27T04:29:55.717Z,101701.50
2022-11-27T04:32:23.493Z,101703.22
2022-11-27T04:34:51.083Z,101709.34
2022-11-27T04:37:18.673Z,101707.63
2022-11-27T04:39:46.598Z,101705.00
2022-11-27T04:42:14.203Z,101708.47
2022-11-27T04:44:42.347Z,101711.97
2022-11-27T04:47:10.068Z,101712.81
2022-11-27T04:49:37.667Z,101710.09
2022-11-27T04:52:05.385Z,101704.91
2022-11-27T04:54:32.981Z,101711.06
2022-11-27T04:57:00.483Z,101704.94
2022-11-27T04:59:28.102Z,101705.81
2022-11-27T05:01:56.079Z,101707.50
2022-11-27T05:04:24.143Z,101717.03
2022-11-27T05:06:52.779Z,101705.06
2022-11-27T05:09:20.540Z,101711.97
2022-11-27T05:11:48.029Z,101717.22
2022-11-27T05:14:16.855Z,101715.50
2022-11-27T05:16:47.477Z,101719.78
2022-11-27T05:19:17.055Z,101725.00
2022-11-27T05:21:45.817Z,101719.81
2022-11-27T05:24:14.280Z,101731.16
2022-11-27T05:26:42.701Z,101731.19
2022-11-27T05:29:11.643Z,101736.31
2022-11-27T05:31:39.940Z,101729.44
2022-11-27T05:34:08.037Z,101739.00
2022-11-27T05:36:36.946Z,101744.13
2022-11-27T05:39:07.800Z,101734.56
2022-11-27T05:41:39.491Z,101746.78
2022-11-27T05:44:07.768Z,101744.16
2022-11-27T05:46:38.266Z,101745.03
2022-11-27T05:49:06.383Z,101751.91
2022-11-27T05:51:33.908Z,101751.88
2022-11-27T05:54:02.244Z,101754.50
2022-11-27T05:56:30.095Z,101753.63
2022-11-27T05:58:57.610Z,101759.72
2022-11-27T06:01:25.130Z,101755.44
2022-11-27T06:03:53.055Z,101760.66
2022-11-27T06:06:21.119Z,101756.31
2022-11-27T06:08:49.301Z,101762.44
2022-11-27T06:11:23.758Z,101766.00
2022-11-27T06:13:51.723Z,101772.09
2022-11-27T06:16:22.592Z,101772.03
2022-11-27T06:18:54.456Z,101773.75
2022-11-27T06:21:25.117Z,101770.19
2022-11-27T06:23:55.681Z,101765.91
2022-11-27T06:26:28.347Z,101764.25
2022-11-27T06:28:57.832Z,101769.41
2022-11-27T06:31:32.299Z,101771.97
2022-11-27T06:34:01.069Z,101771.94
2022-11-27T06:36:36.678Z,101778.09
2022-11-27T06:39:05.858Z,101784.16
2022-11-27T06:41:33.561Z,101786.84
2022-11-27T06:44:02.430Z,101792.91
2022-11-27T06:46:30.259Z,101798.13
2022-11-27T06:48:58.762Z,101795.50
2022-11-27T06:51:28.773Z,101788.50
2022-11-27T06:53:56.912Z,101795.44
2022-11-27T06:56:26.957Z,101797.16
2022-11-27T06:58:56.953Z,101792.75
2022-11-27T07:01:26.818Z,101797.13
2022-11-27T07:03:54.457Z,101798.94
2022-11-27T07:06:24.408Z,101803.25
2022-11-27T07:08:52.442Z,101797.03
2022-11-27T07:11:23.203Z,101804.94
2022-11-27T07:13:51.757Z,101797.97
2022-11-27T07:16:19.580Z,101811.03
2022-11-27T07:18:51.755Z,101807.59
2022-11-27T07:21:19.989Z,101809.38
2022-11-27T07:23:47.825Z,101815.41
2022-11-27T07:26:18.934Z,101824.09
2022-11-27T07:28:47.224Z,101821.47
2022-11-27T07:31:20.708Z,101820.66
2022-11-27T07:33:49.178Z,101824.16
2022-11-27T07:36:25.159Z,101825.81
2022-11-27T07:38:52.912Z,101820.63
2022-11-27T07:41:21.118Z,101824.13
2022-11-27T07:43:49.109Z,101824.13
2022-11-27T07:46:19.722Z,101825.03
2022-11-27T07:48:47.727Z,101827.53
2022-11-27T07:51:19.523Z,101825.84
2022-11-27T07:53:48.754Z,101830.34
2022-11-27T07:56:16.954Z,101828.59
2022-11-27T07:58:44.792Z,101832.06
2022-11-27T08:01:15.345Z,101838.09
2022-11-27T08:03:45.919Z,101832.88
2022-11-27T08:06:18.823Z,101832.84
2022-11-27T08:08:46.586Z,101832.00
2022-11-27T08:11:18.111Z,101836.44
2022-11-27T08:13:46.030Z,101835.53
2022-11-27T08:16:13.787Z,101842.47
2022-11-27T08:18:41.639Z,101847.75
2022-11-27T08:21:09.435Z,101840.94
2022-11-27T08:23:37.006Z,101850.44
2022-11-27T08:26:08.408Z,101840.00
2022-11-27T08:28:36.760Z,101848.66
2022-11-27T08:31:05.923Z,101840.81
2022-11-27T08:33:34.258Z,101844.22
2022-11-27T08:36:02.267Z,101842.47
2022-11-27T08:38:29.924Z,101844.19
2022-11-27T08:40:59.803Z,101840.75
2022-11-27T08:43:28.894Z,101838.06
2022-11-27T08:45:57.122Z,101832.88
2022-11-27T08:48:25.720Z,101829.28
2022-11-27T08:50:53.597Z,101836.25
2022-11-27T08:53:21.120Z,101830.94
2022-11-27T08:55:48.825Z,101830.91
2022-11-27T08:58:16.705Z,101833.59
2022-11-27T09:00:44.278Z,101831.00
2022-11-27T09:03:12.580Z,101837.03
2022-11-27T09:05:44.476Z,101830.91
2022-11-27T09:08:16.612Z,101834.41
2022-11-27T09:10:44.803Z,101834.41
2022-11-27T09:13:12.742Z,101828.28
2022-11-27T09:15:40.846Z,101827.34
2022-11-27T09:18:08.494Z,101827.34
2022-11-27T09:20:36.067Z,101825.63
2022-11-27T09:23:08.922Z,101827.41
2022-11-27T09:25:42.050Z,101823.88
2022-11-27T09:28:09.622Z,101823.00
2022-11-27T09:30:39.842Z,101827.38
2022-11-27T09:33:07.749Z,101824.78
2022-11-27T09:35:38.010Z,101819.50
2022-11-27T09:38:05.842Z,101817.72
2022-11-27T09:40:34.323Z,101823.72
2022-11-27T09:43:09.911Z,101812.47
2022-11-27T09:45:50.794Z,101811.66
2022-11-27T09:48:33.789Z,101813.44
2022-11-27T09:51:13.147Z,101813.56
2022-11-27T09:53:50.636Z,101815.22
2022-11-27T09:56:20.436Z,101806.47
2022-11-27T09:58:57.566Z,101809.91
2022-11-27T10:01:36.559Z,101810.84
2022-11-27T10:04:12.977Z,101815.16
2022-11-27T10:07:18.232Z,101809.81
2022-11-27T10:10:12.307Z,101801.94
2022-11-27T10:12:50.106Z,101812.38
2022-11-27T10:15:33.067Z,101802.75
2022-11-27T10:18:09.590Z,101814.09
2022-11-27T10:21:01.067Z,101809.72
2022-11-27T10:23:46.708Z,101818.47
2022-11-27T10:26:19.308Z,101821.94
2022-11-27T10:29:14.688Z,101818.47
2022-11-27T10:31:59.894Z,101818.50
2022-11-27T10:34:44.943Z,101812.34
2022-11-27T10:37:19.773Z,101813.28
2022-11-27T10:39:55.243Z,101802.84
2022-11-27T10:42:42.859Z,101814.09
2022-11-27T10:45:32.058Z,101808.00
2022-11-27T10:47:59.767Z,101799.19
2022-11-27T10:50:27.296Z,101807.03
2022-11-27T10:52:59.623Z,101808.81
2022-11-27T10:55:58.221Z,101808.00
2022-11-27T10:58:34.588Z,101801.09
2022-11-27T11:01:10.815Z,101800.28
2022-11-27T11:03:38.499Z,101802.75
2022-11-27T11:06:22.373Z,101803.69
2022-11-27T11:09:25.229Z,101794.88
2022-11-27T11:11:53.670Z,101800.25
2022-11-27T11:14:26.652Z,101806.41
2022-11-27T11:16:55.313Z,101801.19
2022-11-27T11:19:32.691Z,101800.31
2022-11-27T11:22:08.107Z,101792.47
2022-11-27T11:24:42.416Z,101796.81
2022-11-27T11:27:32.382Z,101791.56
2022-11-27T11:30:04.283Z,101799.44
2022-11-27T11:32:37.738Z,101798.50
2022-11-27T11:35:27.495Z,101797.75
2022-11-27T11:37:57.562Z,101797.63
2022-11-27T11:40:30.404Z,101806.19
2022-11-27T11:42:59.218Z,101806.16
2022-11-27T11:45:32.307Z,101802.75
2022-11-27T11:48:22.382Z,101815.03
2022-11-27T11:51:02.232Z,101807.25
2022-11-27T11:53:41.516Z,101815.06
2022-11-27T11:56:31.742Z,101820.16
2022-11-27T11:59:08.564Z,101822.75
2022-11-27T12:02:00.263Z,101827.16
2022-11-27T12:04:49.879Z,101822.09
2022-11-27T12:07:23.592Z,101815.94
2022-11-27T12:09:59.801Z,101817.81
2022-11-27T12:12:51.930Z,101819.69
2022-11-27T12:15:25.184Z,101825.69
2022-11-27T12:18:07.655Z,101825.63
2022-11-27T12:20:41.258Z,101825.63
2022-11-27T12:23:30.378Z,101831.69
2022-11-27T12:26:08.565Z,101829.16
2022-11-27T12:28:57.525Z,101836.22
2022-11-27T12:31:52.379Z,101837.03
2022-11-27T12:35:10.812Z,101838.78
2022-11-27T12:37:47.225Z,101834.41
2022-11-27T12:40:49.117Z,101845.72
2022-11-27T12:43:27.225Z,101847.50
2022-11-27T12:46:31.410Z,101848.31
2022-11-27T12:49:06.018Z,101849.09
2022-11-27T12:51:43.543Z,101848.44
2022-11-27T12:54:27.008Z,101851.97
2022-11-27T12:57:08.130Z,101849.41
2022-11-27T12:59:49.791Z,101852.88
2022-11-27T13:02:42.730Z,101856.28
2022-11-27T13:05:16.981Z,101846.72
2022-11-27T13:07:59.242Z,101853.66
2022-11-27T13:10:42.591Z,101852.00
2022-11-27T13:13:11.115Z,101856.38
2022-11-27T13:15:38.808Z,101862.41
2022-11-27T13:18:31.616Z,101859.00
2022-11-27T13:21:06.065Z,101873.81
2022-11-27T13:23:34.445Z,101869.44
2022-11-27T13:26:10.594Z,101875.63
2022-11-27T13:28:50.438Z,101877.34
2022-11-27T13:31:46.520Z,101876.53
2022-11-27T13:34:26.187Z,101880.00
2022-11-27T13:36:57.671Z,101879.91
2022-11-27T13:39:36.033Z,101878.16
2022-11-27T13:42:07.334Z,101877.19
2022-11-27T13:44:41.565Z,101880.91
2022-11-27T13:47:23.416Z,101886.16
2022-11-27T13:50:05.544Z,101881.69
2022-11-27T13:52:34.636Z,101883.38
2022-11-27T13:55:09.860Z,101880.72
2022-11-27T13:57:40.622Z,101885.06
2022-11-27T14:00:13.672Z,101886.78
2022-11-27T14:02:49.594Z,101890.28
2022-11-27T14:05:36.796Z,101883.31
2022-11-27T14:08:18.945Z,101883.28
2022-11-27T14:11:06.698Z,101892.00
2022-11-27T14:13:41.549Z,101899.81
2022-11-27T14:16:23.681Z,101902.44
2022-11-27T14:18:57.261Z,101896.28
2022-11-27T14:21:42.904Z,101897.16
2022-11-27T14:24:53.775Z,101897.13
2022-11-27T14:27:24.923Z,101901.47
2022-11-27T14:29:52.836Z,101891.03
2022-11-27T14:32:22.236Z,101900.69
2022-11-27T14:34:50.320Z,101894.66
2022-11-27T14:37:28.462Z,101894.63
2022-11-27T14:39:56.218Z,101891.03
2022-11-27T14:42:30.208Z,101896.25
2022-11-27T14:45:05.463Z,101907.69
2022-11-27T14:47:34.119Z,101906.72
2022-11-27T14:50:03.633Z,101908.34
2022-11-27T14:52:32.042Z,101910.06
2022-11-27T14:55:02.329Z,101903.91
2022-11-27T14:57:32.494Z,101911.75
2022-11-27T15:00:30.138Z,101907.38
2022-11-27T15:03:08.971Z,101907.38
2022-11-27T15:05:39.282Z,101907.50
2022-11-27T15:08:10.914Z,101911.00
2022-11-27T15:10:41.430Z,101915.38
2022-11-27T15:13:22.908Z,101908.38
2022-11-27T15:17:28.267Z,101908.34
2022-11-27T15:19:57.681Z,101907.69
2022-11-27T15:22:25.596Z,101906.78
2022-11-27T15:25:07.408Z,101912.84
2022-11-27T15:27:46.781Z,101915.50
2022-11-27T15:30:18.226Z,101921.63
2022-11-27T15:32:55.537Z,101919.09
2022-11-27T15:35:27.751Z,101917.28
2022-11-27T15:38:04.572Z,101917.28
2022-11-27T15:40:39.240Z,101920.72
2022-11-27T15:43:14.905Z,101922.41
2022-11-27T15:45:44.544Z,101923.28
2022-11-27T15:48:16.495Z,101925.09
2022-11-27T15:50:49.842Z,101924.25
2022-11-27T15:53:21.303Z,101928.56
2022-11-27T15:55:48.920Z,101926.78
2022-11-27T15:58:16.437Z,101923.28
2022-11-27T16:00:44.009Z,101929.34
2022-11-27T16:03:13.296Z,101928.47
2022-11-27T16:05:43.021Z,101927.56
2022-11-27T16:08:11.150Z,101933.72
2022-11-27T16:10:42.569Z,101936.34
2022-11-27T16:13:11.228Z,101933.75
2022-11-27T16:15:38.832Z,101940.66
2022-11-27T16:18:07.301Z,101934.56
2022-11-27T16:20:35.163Z,101938.91
2022-11-27T16:23:02.788Z,101935.41
2022-11-27T16:25:32.574Z,101937.97
2022-11-27T16:28:03.003Z,101935.31
2022-11-27T16:30:33.030Z,101937.97
2022-11-27T16:33:00.701Z,101944.09
2022-11-27T16:35:28.703Z,101940.66
2022-11-27T16:37:59.130Z,101938.91
2022-11-27T16:40:34.870Z,101934.47
2022-11-27T16:43:04.119Z,101938.84
2022-11-27T16:45:36.540Z,101935.28
2022-11-27T16:48:04.814Z,101942.28
2022-11-27T16:50:34.095Z,101933.56
2022-11-27T16:53:01.972Z,101935.31
2022-11-27T16:55:29.606Z,101939.75
2022-11-27T16:57:59.263Z,101933.63
2022-11-27T17:00:28.623Z,101930.97
2022-11-27T17:02:56.513Z,101936.13
2022-11-27T17:05:24.298Z,101937.91
2022-11-27T17:07:51.845Z,101934.38
2022-11-27T17:10:20.397Z,101932.66
2022-11-27T17:12:48.034Z,101934.53
2022-11-27T17:15:15.571Z,101930.09
2022-11-27T17:17:44.171Z,101930.97
2022-11-27T17:20:12.205Z,101929.34
2022-11-27T17:22:40.300Z,101934.59
2022-11-27T17:25:11.269Z,101938.03
2022-11-27T17:27:40.595Z,101936.25
2022-11-27T17:30:09.039Z,101939.69
2022-11-27T17:32:36.847Z,101937.06
2022-11-27T17:35:06.488Z,101946.72
2022-11-27T17:37:34.725Z,101942.41
2022-11-27T17:40:02.333Z,101943.31
2022-11-27T17:42:30.658Z,101943.22
2022-11-27T17:44:58.288Z,101946.66
2022-11-27T17:47:25.852Z,101950.97
2022-11-27T17:49:53.603Z,101940.44
2022-11-27T17:52:21.395Z,101951.88
2022-11-27T17:54:49.226Z,101950.09
2022-11-27T17:57:16.850Z,101947.56
2022-11-27T17:59:44.647Z,101941.50
2022-11-27T18:02:12.522Z,101944.16
2022-11-27T18:04:41.207Z,101940.72
2022-11-27T18:07:09.360Z,101945.00
2022-11-27T18:09:37.828Z,101955.47
2022-11-27T18:12:07.785Z,101945.88
2022-11-27T18:14:37.092Z,101944.19
2022-11-27T18:17:05.273Z,101953.81
2022-11-27T18:19:33.288Z,101951.25
2022-11-27T18:22:00.747Z,101952.97
2022-11-27T18:24:28.421Z,101959.84
2022-11-27T18:27:11.559Z,101957.19
2022-11-27T18:29:42.475Z,101956.28
2022-11-27T18:32:12.206Z,101952.88
2022-11-27T18:34:40.239Z,101958.13
2022-11-27T18:37:08.268Z,101962.53
2022-11-27T18:39:38.368Z,101965.13
2022-11-27T18:42:07.140Z,101965.13
2022-11-27T18:44:42.741Z,101964.31
2022-11-27T18:47:14.911Z,101977.31
2022-11-27T18:49:45.133Z,101971.34
2022-11-27T18:52:13.600Z,101979.13
2022-11-27T18:54:44.436Z,101971.19
2022-11-27T18:57:13.497Z,101976.38
2022-11-27T18:59:43.606Z,101983.34
2022-11-27T19:02:11.678Z,101984.19
2022-11-27T19:04:39.804Z,101979.94
2022-11-27T19:07:08.073Z,101972.91
2022-11-27T19:09:36.192Z,101986.03
2022-11-27T19:12:04.644Z,101984.25
2022-11-27T19:14:33.887Z,101989.38
2022-11-27T19:17:01.938Z,101986.69
2022-11-27T19:22:21.108Z,101987.63
2022-11-27T19:24:48.742Z,101988.56
2022-11-27T19:27:16.567Z,101986.81
2022-11-27T19:29:44.506Z,101987.69
2022-11-27T19:32:12.313Z,101987.66
2022-11-27T19:34:40.793Z,101985.00
2022-11-27T19:37:08.674Z,101985.88
2022-11-27T19:39:36.194Z,101990.22
2022-11-27T19:42:06.578Z,101988.50
2022-11-27T19:44:37.879Z,101995.53
2022-11-27T19:47:09.565Z,101992.84
2022-11-27T19:49:37.358Z,101996.34
2022-11-27T19:52:05.170Z,102000.78
2022-11-27T19:54:33.707Z,102003.38
2022-11-27T19:57:01.233Z,101999.84
2022-11-27T19:59:29.218Z,101995.53
2022-11-27T20:01:57.912Z,101989.44
2022-11-27T20:04:30.425Z,101991.22
2022-11-27T20:06:58.807Z,101988.44
2022-11-27T20:09:26.595Z,101990.22
2022-11-27T20:11:54.179Z,101997.34
2022-11-27T20:14:22.061Z,102001.72
2022-11-27T20:16:49.918Z,101999.94
2022-11-27T20:19:18.496Z,101992.09
2022-11-27T20:21:46.095Z,101997.31
2022-11-27T20:24:14.901Z,101992.06
2022-11-27T20:26:43.344Z,101995.66
2022-11-27T20:29:14.119Z,102005.25
2022-11-27T20:31:45.005Z,102003.47
2022-11-27T20:34:20.358Z,102002.59
2022-11-27T20:36:49.167Z,102002.47
2022-11-27T20:39:21.268Z,102008.56
2022-11-27T20:41:52.013Z,102005.09
2022-11-27T20:44:22.425Z,102013.84
2022-11-27T20:46:51.182Z,102017.31
2022-11-27T20:49:19.608Z,102013.84
2022-11-27T20:51:50.979Z,102012.06
2022-11-27T20:54:23.130Z,102010.31
2022-11-27T20:56:51.437Z,102003.44
2022-11-27T20:59:19.953Z,102007.91
2022-11-27T21:01:48.450Z,102013.97
2022-11-27T21:04:22.629Z,102015.69
2022-11-27T21:06:50.924Z,102017.34
2022-11-27T21:09:20.827Z,102023.44
2022-11-27T21:11:48.806Z,102019.06
2022-11-27T21:14:17.212Z,102016.41
2022-11-27T21:16:48.847Z,102022.47
2022-11-27T21:19:25.906Z,102025.09
2022-11-27T21:21:55.920Z,102026.06
2022-11-27T21:24:27.462Z,102025.16
2022-11-27T21:26:56.367Z,102032.16
2022-11-27T21:29:25.902Z,102040.03
2022-11-27T21:31:55.452Z,102037.41
2022-11-27T21:34:24.843Z,102035.66
2022-11-27T21:36:52.667Z,102032.25
2022-11-27T21:39:21.153Z,102031.38
2022-11-27T21:41:51.154Z,102031.38
2022-11-27T21:44:21.269Z,102029.59
2022-11-27T21:46:49.238Z,102031.28
2022-11-27T21:49:19.641Z,102033.06
2022-11-27T21:51:51.025Z,102028.69
2022-11-27T21:54:19.708Z,102027.81
2022-11-27T21:56:51.519Z,102027.84
2022-11-27T21:59:19.453Z,102027.91
2022-11-27T22:01:48.794Z,102032.22
2022-11-27T22:04:17.083Z,102032.25
2022-11-27T22:06:45.453Z,102030.50
2022-11-27T22:09:16.060Z,102027.88
2022-11-27T22:11:46.955Z,102027.91
2022-11-27T22:14:16.380Z,102029.72
2022-11-27T22:16:46.107Z,102027.03
2022-11-27T22:19:15.118Z,102036.59
2022-11-27T22:21:44.668Z,102035.78
2022-11-27T22:24:18.221Z,102033.16
2022-11-27T22:26:47.498Z,102034.97
2022-11-27T22:29:18.816Z,102040.19
2022-11-27T22:31:47.425Z,102027.00
2022-11-27T22:34:16.896Z,102033.16
2022-11-27T22:36:45.466Z,102034.88
2022-11-27T22:39:13.734Z,102042.75
2022-11-27T22:41:42.462Z,102033.16
2022-11-27T22:44:18.440Z,102031.41
2022-11-27T22:46:47.672Z,102037.47
2022-11-27T22:49:17.520Z,102040.09
2022-11-27T22:51:46.293Z,102035.78
2022-11-27T22:54:17.305Z,102037.50
2022-11-27T22:56:46.844Z,102034.00
2022-11-27T22:59:32.860Z,102037.44
2022-11-27T23:02:04.130Z,102036.56
2022-11-27T23:04:34.347Z,102040.88
2022-11-27T23:07:03.061Z,102039.25
2022-11-27T23:09:31.829Z,102043.63
2022-11-27T23:11:59.888Z,102040.16
2022-11-27T23:14:27.743Z,102040.13
2022-11-27T23:16:55.758Z,102041.84
2022-11-27T23:19:23.359Z,102042.66
2022-11-27T23:21:50.925Z,102047.09
2022-11-27T23:24:18.521Z,102043.69
2022-11-27T23:26:46.414Z,102055.03
2022-11-27T23:29:14.570Z,102043.72
2022-11-27T23:31:42.731Z,102045.50
2022-11-27T23:34:14.107Z,102056.00
2022-11-27T23:36:42.255Z,102055.13
2022-11-27T23:39:12.547Z,102053.38
2022-11-27T23:41:40.664Z,102049.88
2022-11-27T23:44:08.489Z,102056.00
2022-11-27T23:46:36.097Z,102055.19
2022-11-27T23:49:03.843Z,102058.69
2022-11-27T23:51:33.018Z,102064.72
2022-11-27T23:54:01.631Z,102062.19
2022-11-27T23:56:31.516Z,102059.50
2022-11-27T23:59:00.151Z,102067.34
